Time;durP1;ratioP1;P1;durP2;ratioP2;P2;SDS_P1;SDS_P2;PMS_P1;PMS_P2;Temp;Humidity;BMP_temperature;BMP_pressure;BME280_temperature;BME280_humidity;BME280_pressure;Samples;Min_cycle;Max_cycle;Signal;HPM_P1;HPM_P2
2022/11/08 00:03:34;;;;;;;32.00;12.38;;;;;;;4.05;69.22;100108.59;6077314;23;20456;-82
2022/11/08 00:14:13;;;;;;;27.90;11.13;;;;;;;4.69;68.41;100192.47;6079747;23;20431;-79
2022/11/08 00:16:39;;;;;;;32.42;12.48;;;;;;;4.52;68.82;100164.59;6027989;23;20054;-85
2022/11/08 00:19:05;;;;;;;28.48;12.05;;;;;;;4.62;69.19;100180.25;6027384;23;20022;-82
2022/11/08 00:21:31;;;;;;;31.63;12.40;;;;;;;4.12;69.39;100106.19;6103020;23;20018;-81
2022/11/08 00:23:57;;;;;;;31.58;12.25;;;;;;;4.00;68.68;100081.88;6076761;23;20057;-83
2022/11/08 00:26:23;;;;;;;30.38;12.40;;;;;;;3.87;68.80;100059.28;6099592;23;20022;-83
2022/11/08 00:28:49;;;;;;;32.13;12.82;;;;;;;3.59;69.04;100012.31;6098333;23;20028;-81
2022/11/08 00:31:15;;;;;;;32.42;13.18;;;;;;;4.33;68.88;100139.25;6051185;23;20401;-84
2022/11/08 00:33:41;;;;;;;34.58;12.18;;;;;;;3.76;68.68;100059.03;6027464;23;20025;-82
2022/11/08 00:36:08;;;;;;;29.98;12.15;;;;;;;3.72;69.77;100034.03;6076414;23;20018;-83
2022/11/08 00:38:34;;;;;;;28.08;11.85;;;;;;;4.14;69.31;100099.34;6052292;23;20022;-83
2022/11/08 00:41:01;;;;;;;27.45;11.48;;;;;;;4.26;69.60;100133.09;6101699;23;20030;-83
2022/11/08 00:43:27;;;;;;;31.42;13.45;;;;;;;4.34;69.22;100136.72;6076202;23;20018;-79
2022/11/08 00:45:53;;;;;;;28.48;11.77;;;;;;;4.51;69.13;100151.69;6073712;23;20022;-80
2022/11/08 00:48:18;;;;;;;29.90;12.85;;;;;;;4.38;69.26;100132.50;6074030;23;20065;-81
2022/11/08 00:50:45;;;;;;;30.95;12.20;;;;;;;4.32;69.80;100115.22;6097890;23;20018;-79
2022/11/08 00:53:11;;;;;;;29.70;11.85;;;;;;;4.39;69.32;100118.78;6098452;23;20072;-83
2022/11/08 00:55:37;;;;;;;27.50;11.35;;;;;;;4.09;69.31;100070.91;6072295;23;20109;-80
2022/11/08 00:58:03;;;;;;;30.70;12.00;;;;;;;4.31;69.90;100097.13;6048555;23;20022;-80
2022/11/08 01:00:29;;;;;;;30.27;12.18;;;;;;;4.33;69.70;100106.66;6104758;23;20042;-80
2022/11/08 01:05:40;;;;;;;28.35;11.52;;;;;;;4.19;69.60;100072.84;6073149;23;20105;-82
2022/11/08 01:08:07;;;;;;;30.85;11.75;;;;;;;4.56;69.48;100131.16;6078174;23;20018;-81
2022/11/08 01:10:34;;;;;;;31.35;11.63;;;;;;;4.46;69.40;100106.91;6082950;23;20032;-80
2022/11/08 01:13:00;;;;;;;30.73;13.15;;;;;;;4.01;69.32;100042.41;6107080;23;20026;-83
2022/11/08 01:15:25;;;;;;;29.83;12.82;;;;;;;4.20;69.50;100065.97;6103123;23;20050;-80
2022/11/08 01:17:51;;;;;;;28.60;11.88;;;;;;;4.50;69.99;100119.91;6103312;23;20045;-81
2022/11/08 01:20:18;;;;;;;31.75;12.23;;;;;;;4.12;70.08;100078.69;6087096;23;20019;-83
2022/11/08 01:22:44;;;;;;;31.05;12.13;;;;;;;4.08;70.16;100064.03;6089310;23;20022;-81
2022/11/08 01:25:11;;;;;;;32.72;12.57;;;;;;;4.20;70.03;100092.63;6103172;23;20019;-82
2022/11/08 01:27:37;;;;;;;29.17;12.07;;;;;;;4.45;70.07;100118.94;6098257;23;20014;-86
2022/11/08 01:30:04;;;;;;;29.02;12.05;;;;;;;4.07;69.40;100063.16;6098521;23;20471;-80
2022/11/08 01:32:30;;;;;;;34.33;12.80;;;;;;;4.12;70.36;100060.66;6109842;23;20029;-80
2022/11/08 01:34:56;;;;;;;32.05;12.63;;;;;;;4.16;70.02;100077.94;6063330;23;20015;-80
2022/11/08 01:37:22;;;;;;;29.30;11.77;;;;;;;4.45;70.41;100126.66;6113874;23;20024;-80
2022/11/08 01:39:48;;;;;;;33.65;12.85;;;;;;;4.38;70.43;100099.00;6111095;23;20046;-80
2022/11/08 01:42:14;;;;;;;29.58;11.68;;;;;;;4.08;70.88;100030.56;6075919;23;20042;-80
2022/11/08 01:45:00;;;;;;;33.95;12.80;;;;;;;4.54;69.90;100105.34;6026219;23;20018;-81
2022/11/08 01:47:26;;;;;;;30.73;12.52;;;;;;;4.22;70.45;100054.91;6049896;23;20018;-84
2022/11/08 01:50:07;;;;;;;32.50;12.57;;;;;;;4.28;70.30;100081.63;6099326;23;20014;-82
2022/11/08 01:52:38;;;;;;;33.92;12.93;;;;;;;3.84;70.01;100030.88;6098941;23;20523;-80
2022/11/08 01:55:29;;;;;;;39.40;13.15;;;;;;;4.58;70.79;100126.91;6099422;23;20018;-84
2022/11/08 01:58:00;;;;;;;31.75;12.15;;;;;;;4.60;70.16;100126.13;6073650;23;20098;-81
2022/11/08 02:00:26;;;;;;;35.42;12.90;;;;;;;4.27;70.71;100065.28;6049889;23;20022;-80
2022/11/08 02:02:59;;;;;;;35.45;13.38;;;;;;;4.60;70.02;100113.22;6050084;23;20464;-81
2022/11/08 02:05:27;;;;;;;30.95;12.65;;;;;;;4.59;70.07;100115.75;6099262;23;20022;-83
2022/11/08 02:08:16;;;;;;;29.05;11.68;;;;;;;4.53;70.30;100113.94;6050349;23;20018;-83
2022/11/08 02:10:45;;;;;;;30.98;12.80;;;;;;;4.50;70.99;100109.59;6100518;23;20044;-83
2022/11/08 02:13:14;;;;;;;35.65;12.82;;;;;;;4.53;70.27;100106.19;6058493;23;20029;-81
2022/11/08 02:15:41;;;;;;;34.58;12.13;;;;;;;4.56;71.11;100106.25;6080293;23;20014;-81
2022/11/08 02:18:07;;;;;;;30.13;12.13;;;;;;;4.36;70.35;100080.06;6061101;23;20018;-82
2022/11/08 02:20:34;;;;;;;30.05;11.88;;;;;;;4.56;70.81;100110.53;6110953;23;20033;-82
2022/11/08 02:23:23;;;;;;;33.53;13.40;;;;;;;4.17;70.67;100033.31;6087839;23;20025;-83
2022/11/08 02:25:49;;;;;;;26.80;11.88;;;;;;;4.56;70.64;100093.38;6112285;23;20018;-81
2022/11/08 02:28:15;;;;;;;28.77;11.27;;;;;;;4.33;70.57;100043.91;6109952;23;20109;-81
2022/11/08 02:30:41;;;;;;;29.80;11.90;;;;;;;4.65;70.68;100082.38;6037553;23;20022;-81
2022/11/08 02:33:18;;;;;;;32.30;12.38;;;;;;;4.63;70.88;100076.31;6086121;23;20034;-80
2022/11/08 02:35:55;;;;;;;31.00;11.75;;;;;;;4.57;70.94;100050.41;6074189;23;20029;-81
2022/11/08 02:38:25;;;;;;;27.02;11.25;;;;;;;3.95;70.79;99941.88;6125140;23;20026;-79
2022/11/08 02:40:52;;;;;;;29.52;11.40;;;;;;;4.28;70.85;100000.03;6124492;23;20022;-79
2022/11/08 02:43:19;;;;;;;32.45;12.30;;;;;;;4.59;70.32;100034.16;6068841;23;20026;-82
2022/11/08 02:45:45;;;;;;;26.38;11.48;;;;;;;4.71;70.99;100054.16;6076709;23;20010;-82
2022/11/08 02:48:12;;;;;;;26.58;11.95;;;;;;;4.83;70.88;100074.13;6072436;23;20009;-80
2022/11/08 02:50:39;;;;;;;29.17;12.15;;;;;;;4.50;70.59;100027.13;6068395;23;20463;-82
2022/11/08 02:53:07;;;;;;;27.33;11.43;;;;;;;4.81;70.79;100071.50;6121087;23;20006;-81
2022/11/08 02:55:33;;;;;;;27.52;12.05;;;;;;;4.67;70.59;100049.75;6099367;23;20021;-79
2022/11/08 02:58:02;;;;;;;29.80;11.43;;;;;;;4.82;70.80;100065.50;6090109;23;20052;-79
2022/11/08 03:00:28;;;;;;;29.80;12.55;;;;;;;4.87;70.36;100069.91;6063466;23;20018;-81
2022/11/08 03:02:56;;;;;;;27.40;11.52;;;;;;;4.85;70.24;100063.84;6086521;23;20018;-80
2022/11/08 03:05:25;;;;;;;28.58;11.00;;;;;;;4.42;70.05;99996.84;6100706;23;20026;-82
2022/11/08 03:07:53;;;;;;;29.52;11.77;;;;;;;4.46;70.31;100009.84;6073659;23;20014;-83
2022/11/08 03:10:20;;;;;;;27.73;10.95;;;;;;;4.18;70.37;99980.97;6073012;23;20025;-79
2022/11/08 03:12:46;;;;;;;29.17;11.75;;;;;;;4.34;70.33;99992.44;6098098;23;20030;-81
2022/11/08 03:15:13;;;;;;;27.80;11.18;;;;;;;4.41;70.74;100003.72;6096845;23;20019;-80
2022/11/08 03:17:39;;;;;;;29.20;12.45;;;;;;;4.37;70.79;99999.34;6073864;23;20026;-81
2022/11/08 03:20:07;;;;;;;28.85;11.52;;;;;;;4.32;70.55;100014.72;6074662;23;20048;-80
2022/11/08 03:22:33;;;;;;;29.67;12.68;;;;;;;4.27;70.57;99993.16;6076372;23;20028;-80
2022/11/08 03:24:59;;;;;;;27.65;11.73;;;;;;;4.54;70.57;100046.06;6081070;23;20065;-79
2022/11/08 03:27:25;;;;;;;31.60;13.10;;;;;;;4.43;70.85;100025.25;6051233;23;20018;-82
2022/11/08 03:29:51;;;;;;;26.80;11.57;;;;;;;4.33;70.93;100007.84;6098619;23;20018;-79
2022/11/08 03:32:17;;;;;;;31.98;12.82;;;;;;;4.36;71.22;100001.06;6049844;23;20029;-81
2022/11/08 03:34:42;;;;;;;27.95;12.02;;;;;;;4.52;70.67;100015.09;6073751;23;20033;-80
2022/11/08 03:37:11;;;;;;;28.13;12.18;;;;;;;4.70;70.89;100026.63;6074656;23;20088;-82
2022/11/08 03:39:37;;;;;;;33.85;13.20;;;;;;;4.77;71.01;100028.44;6072757;23;20073;-81
2022/11/08 03:42:03;;;;;;;32.70;13.05;;;;;;;4.62;70.01;100005.88;6049013;23;20018;-82
2022/11/08 03:44:31;;;;;;;28.50;12.93;;;;;;;4.75;70.53;100022.41;6074313;23;20401;-81
2022/11/08 03:46:58;;;;;;;32.85;12.60;;;;;;;4.77;71.08;100031.03;6049769;23;20368;-82
2022/11/08 03:49:25;;;;;;;32.45;12.93;;;;;;;4.60;70.91;99992.06;6073820;23;20014;-83
2022/11/08 03:51:52;;;;;;;26.85;11.65;;;;;;;4.38;70.55;99967.59;6050285;23;20014;-80
2022/11/08 03:54:18;;;;;;;29.65;12.18;;;;;;;4.52;70.90;99980.75;6099018;23;20037;-81
2022/11/08 03:56:44;;;;;;;28.13;13.48;;;;;;;4.77;70.99;100012.13;6072335;23;20543;-82
2022/11/08 03:59:11;;;;;;;30.13;12.20;;;;;;;4.80;70.67;100013.03;6048394;23;20135;-79
2022/11/08 04:01:40;;;;;;;28.95;12.10;;;;;;;4.79;71.13;100021.63;6025382;23;20029;-83
2022/11/08 04:04:07;;;;;;;31.38;12.63;;;;;;;4.74;71.08;100006.91;6075722;23;20480;-81
2022/11/08 04:06:33;;;;;;;37.15;13.55;;;;;;;4.75;71.93;100013.81;6074165;23;20018;-81
2022/11/08 04:08:59;;;;;;;27.67;12.05;;;;;;;4.39;71.25;99947.88;6104708;23;20046;-80
2022/11/08 04:16:56;;;;;;;30.52;12.18;;;;;;;3.95;71.78;99912.66;6049554;23;20093;-84
2022/11/08 04:22:07;;;;;;;32.42;11.57;;;;;;;4.60;71.61;100009.22;6100627;23;20018;-82
2022/11/08 04:24:33;;;;;;;29.83;12.02;;;;;;;4.65;71.66;100016.19;6100071;23;20018;-81
2022/11/08 04:27:00;;;;;;;27.85;10.95;;;;;;;4.48;71.64;99992.72;6072958;23;20444;-79
2022/11/08 04:29:28;;;;;;;26.92;12.23;;;;;;;4.63;71.08;100032.50;6096898;23;20369;-81
2022/11/08 04:31:54;;;;;;;30.25;12.00;;;;;;;4.30;71.42;99980.34;6025071;23;20028;-80
2022/11/08 04:34:20;;;;;;;27.65;10.88;;;;;;;4.64;71.97;100029.06;6057261;23;20041;-79
2022/11/08 04:36:47;;;;;;;29.17;11.98;;;;;;;4.36;71.69;99974.41;6082200;23;20026;-79
2022/11/08 04:39:16;;;;;;;25.27;11.15;;;;;;;4.72;72.20;100021.47;6101293;23;20496;-81
2022/11/08 04:41:42;;;;;;;28.67;12.25;;;;;;;4.41;72.27;99953.91;6072551;23;20022;-84
2022/11/08 04:44:08;;;;;;;26.95;12.05;;;;;;;4.73;72.22;100015.50;6048946;23;20022;-79
2022/11/08 04:46:34;;;;;;;27.08;12.60;;;;;;;4.66;72.10;100007.63;6074675;23;20018;-78
2022/11/08 04:49:01;;;;;;;25.60;11.15;;;;;;;4.44;72.21;99965.16;6048565;23;20049;-82
2022/11/08 04:51:54;;;;;;;29.88;12.05;;;;;;;4.09;72.24;99905.22;6050110;23;20018;-82
2022/11/08 04:54:44;;;;;;;29.92;11.88;;;;;;;3.90;71.64;99900.56;6053724;23;20093;-79
2022/11/08 04:57:19;;;;;;;27.52;11.45;;;;;;;4.16;71.84;99932.84;6052019;23;20027;-80
2022/11/08 04:59:45;;;;;;;27.50;11.50;;;;;;;4.07;72.30;99942.09;6078840;23;20040;-82
2022/11/08 05:02:11;;;;;;;27.05;12.10;;;;;;;3.44;71.78;99835.28;6104281;23;20014;-82
2022/11/08 05:04:37;;;;;;;31.85;11.65;;;;;;;3.28;72.60;99801.53;6056446;23;20021;-82
2022/11/08 05:07:06;;;;;;;26.50;11.55;;;;;;;3.31;72.71;99827.31;6111310;23;20023;-82
2022/11/08 05:09:41;;;;;;;26.23;11.18;;;;;;;3.66;72.34;99893.22;6063744;23;20018;-82
2022/11/08 05:12:18;;;;;;;25.05;10.98;;;;;;;4.35;72.51;100016.47;6056734;23;20002;-81
2022/11/08 05:14:57;;;;;;;30.20;12.15;;;;;;;4.08;73.11;99971.31;6066379;23;20007;-82
2022/11/08 05:17:32;;;;;;;26.65;11.27;;;;;;;4.38;73.04;100011.41;6071635;23;20025;-82
2022/11/08 05:23:31;;;;;;;28.83;11.13;;;;;;;4.47;72.60;100009.00;6050638;23;20019;-83
2022/11/08 05:26:27;;;;;;;25.42;11.10;;;;;;;3.74;73.26;99865.94;6048342;23;20025;-81
2022/11/08 05:29:44;;;;;;;28.40;10.98;;;;;;;4.21;73.34;99955.25;6046554;23;20018;-81
2022/11/08 05:35:35;;;;;;;26.85;10.77;;;;;;;4.23;73.37;99963.00;6015858;23;20376;-81
2022/11/08 05:38:13;;;;;;;26.73;11.60;;;;;;;3.77;73.43;99881.44;6044766;23;20044;-80
2022/11/08 05:40:50;;;;;;;28.90;11.25;;;;;;;3.22;73.49;99755.09;6020737;23;20046;-82
2022/11/08 05:43:39;;;;;;;25.75;10.50;;;;;;;4.42;73.34;99959.09;6045592;23;20453;-80
2022/11/08 05:47:38;;;;;;;;;;;;;;;;;;;;;
2022/11/08 05:51:13;;;;;;;;;;;;;;;;;;;;;
2022/11/08 05:54:16;;;;;;;26.67;11.18;;;;;;;4.38;72.92;99944.41;6040978;23;20019;-81
2022/11/08 05:57:19;;;;;;;26.85;11.30;;;;;;;3.51;73.38;99808.84;6044657;23;20526;-81
2022/11/08 06:00:21;;;;;;;31.83;11.50;;;;;;;3.94;73.55;99885.19;6032758;23;20019;-82
2022/11/08 06:02:50;;;;;;;36.22;13.52;;;;;;;4.30;73.97;99905.63;6021446;23;20029;-82
2022/11/08 06:05:16;;;;;;;25.42;11.50;;;;;;;4.04;73.68;99863.94;6044631;23;20083;-82
2022/11/08 06:07:56;;;;;;;29.30;11.85;;;;;;;4.77;73.93;99976.03;6107005;23;20023;-82
2022/11/08 06:10:43;;;;;;;27.98;11.55;;;;;;;4.80;73.55;99988.97;6074346;23;20022;-82
2022/11/08 06:13:18;;;;;;;28.02;12.02;;;;;;;4.01;73.70;99827.81;6001977;23;20029;-84
2022/11/08 06:15:51;;;;;;;26.70;11.93;;;;;;;4.84;74.23;99965.00;6027998;23;20061;-80
2022/11/08 06:18:17;;;;;;;30.42;12.02;;;;;;;4.03;73.69;99829.56;6067425;23;20019;-82
2022/11/08 06:20:47;;;;;;;26.10;11.45;;;;;;;4.17;73.59;99862.44;6043792;23;20054;-82
2022/11/08 06:23:16;;;;;;;25.50;11.90;;;;;;;4.97;73.45;99966.03;6068886;23;20070;-82
2022/11/08 06:25:59;;;;;;;32.90;12.52;;;;;;;4.59;74.12;99902.69;6039144;23;20051;-81
2022/11/08 06:29:19;;;;;;;25.15;10.95;;;;;;;5.10;73.93;99972.28;6024495;23;20087;-81
2022/11/08 06:35:53;;;;;;;29.10;11.82;;;;;;;4.00;73.07;99778.00;6032117;23;20018;-81
2022/11/08 06:38:24;;;;;;;26.88;11.82;;;;;;;5.22;73.85;99967.31;6072126;23;20080;-82
2022/11/08 06:41:02;;;;;;;22.95;10.65;;;;;;;5.26;74.16;99976.84;6050753;23;20015;-82
2022/11/08 06:43:36;;;;;;;26.27;12.15;;;;;;;5.06;73.88;99929.25;6101237;23;20022;-81
2022/11/08 06:46:02;;;;;;;27.85;11.38;;;;;;;4.59;73.53;99829.66;6046593;23;20026;-82
2022/11/08 06:48:29;;;;;;;22.30;10.65;;;;;;;4.19;73.41;99768.03;6074675;23;20033;-83
2022/11/08 06:51:02;;;;;;;25.02;11.25;;;;;;;4.50;73.69;99827.78;6074048;23;20042;-82
2022/11/08 06:53:32;;;;;;;24.33;10.50;;;;;;;4.68;73.33;99869.31;6049175;23;20545;-81
2022/11/08 06:56:03;;;;;;;23.42;10.85;;;;;;;5.15;73.25;99937.09;6073586;23;20038;-82
2022/11/08 06:58:34;;;;;;;27.80;10.65;;;;;;;4.64;73.60;99862.38;6049314;23;20039;-82
2022/11/08 07:01:09;;;;;;;23.42;11.02;;;;;;;5.01;73.71;99918.81;6082045;23;20041;-81
2022/11/08 07:03:37;;;;;;;25.83;11.18;;;;;;;4.65;73.43;99853.81;6050241;23;20025;-81
2022/11/08 07:07:01;;;;;;;26.83;11.18;;;;;;;5.35;73.36;99939.09;6068838;23;20022;-83
2022/11/08 07:10:16;;;;;;;26.92;11.25;;;;;;;4.94;73.76;99873.19;6038018;23;20365;-81
2022/11/08 07:12:50;;;;;;;30.13;11.38;;;;;;;5.34;73.05;99946.00;6091129;23;20054;-85
2022/11/08 07:15:52;;;;;;;23.02;11.43;;;;;;;3.92;73.01;99723.81;6075418;23;20015;-84
2022/11/08 07:18:50;;;;;;;;;;;;;;;5.38;73.67;99950.38;5967363;24;20024;-83
2022/11/08 07:21:17;;;;;;;28.45;11.73;;;;;;;4.91;73.52;99873.97;6041674;23;19968;-81
2022/11/08 07:23:43;;;;;;;27.20;11.43;;;;;;;5.45;73.41;99948.75;6093809;23;20099;-82
2022/11/08 07:26:13;;;;;;;24.63;11.23;;;;;;;5.47;73.16;99953.91;6069439;23;20038;-83
2022/11/08 07:28:43;;;;;;;25.23;11.32;;;;;;;4.43;73.41;99784.72;6047601;23;20059;-81
2022/11/08 07:31:26;;;;;;;22.92;10.23;;;;;;;4.45;73.07;99781.34;6056748;23;20064;-82
2022/11/08 07:35:10;;;;;;;24.55;11.13;;;;;;;5.58;73.47;99952.38;6054460;23;20042;-84
2022/11/08 07:42:25;;;;;;;19.85;10.02;;;;;;;5.71;73.13;99966.31;6002510;23;20142;-85
2022/11/08 07:49:51;;;;;;;24.73;10.38;;;;;;;5.73;72.87;99962.03;5978558;23;20039;-82
2022/11/08 07:52:23;;;;;;;20.80;10.65;;;;;;;4.34;72.72;99716.75;5967605;23;20024;-81
2022/11/08 07:54:50;;;;;;;22.73;10.55;;;;;;;5.58;72.92;99914.50;5970195;23;20026;-82
2022/11/08 07:57:19;;;;;;;21.63;10.02;;;;;;;4.96;73.06;99799.28;5992267;23;20023;-80
2022/11/08 07:59:53;;;;;;;21.65;10.50;;;;;;;5.12;72.69;99829.59;6015611;23;20019;-82
2022/11/08 08:03:07;;;;;;;21.10;9.88;;;;;;;5.88;72.88;99948.44;6016501;23;20083;-84
2022/11/08 08:05:50;;;;;;;19.67;9.90;;;;;;;5.47;72.97;99861.00;5979839;23;20019;-86
2022/11/08 08:08:16;;;;;;;23.70;10.57;;;;;;;5.13;72.63;99804.63;5990306;23;20106;-81
2022/11/08 08:10:42;;;;;;;19.08;9.73;;;;;;;4.70;72.70;99714.69;6013768;23;20023;-81
2022/11/08 08:13:10;;;;;;;21.90;9.55;;;;;;;5.37;72.83;99819.59;6043166;23;20027;-80
2022/11/08 08:15:40;;;;;;;19.30;10.02;;;;;;;5.20;72.83;99787.53;6043342;23;20038;-82
2022/11/08 08:18:10;;;;;;;;;;;;;;;6.12;72.59;99932.41;5973701;23;20090;-80
2022/11/08 08:21:00;;;;;;;18.10;8.77;;;;;;;5.75;72.35;99885.44;5997452;23;19914;-81
2022/11/08 08:24:00;;;;;;;20.92;9.15;;;;;;;4.89;72.65;99732.97;6036672;23;20026;-81
2022/11/08 08:27:21;;;;;;;19.20;9.25;;;;;;;4.99;72.61;99737.41;6082458;23;20018;-83
2022/11/08 08:30:18;;;;;;;17.90;9.73;;;;;;;6.23;72.30;99931.66;6054803;23;20018;-81
2022/11/08 08:33:12;;;;;;;17.92;9.50;;;;;;;6.02;72.02;99890.09;6075888;23;20042;-82
2022/11/08 08:35:43;;;;;;;18.45;9.88;;;;;;;5.93;72.39;99845.19;6073544;23;20042;-82
2022/11/08 08:38:12;;;;;;;17.92;8.93;;;;;;;6.22;72.28;99871.34;6026211;23;20021;-81
2022/11/08 08:40:52;;;;;;;16.73;8.30;;;;;;;5.80;71.88;99813.19;6075730;23;20053;-82
2022/11/08 08:43:32;;;;;;;17.20;8.57;;;;;;;5.93;72.16;99835.72;6064795;23;20017;-80
2022/11/08 08:46:25;;;;;;;18.63;8.98;;;;;;;6.17;72.26;99860.09;6066502;23;20015;-81
2022/11/08 08:49:26;;;;;;;16.30;8.25;;;;;;;5.69;71.95;99795.00;6071127;23;20025;-81
2022/11/08 08:52:29;;;;;;;13.98;7.25;;;;;;;5.17;71.57;99710.13;6041950;23;20018;-81
2022/11/08 08:54:59;;;;;;;15.30;7.63;;;;;;;6.40;72.37;99903.41;6095062;23;20048;-82
2022/11/08 08:57:47;;;;;;;14.27;7.68;;;;;;;5.47;71.41;99737.09;6119195;23;20018;-81
2022/11/08 09:00:49;;;;;;;;;;;;;;;;;;;;;
2022/11/08 09:04:16;;;;;;;16.73;8.48;;;;;;;6.43;71.86;99921.53;6010719;23;20020;-82
2022/11/08 09:08:31;;;;;;;;;;;;;;;;;;;;;
2022/11/08 09:21:03;;;;;;;;;;;;;;;;;;;;;
2022/11/08 09:23:33;;;;;;;16.73;8.73;;;;;;;5.30;71.31;99742.94;5989712;23;20023;-83
2022/11/08 09:27:07;;;;;;;;;;;;;;;;;;;;;
2022/11/08 09:30:16;;;;;;;20.52;10.27;;;;;;;6.21;71.71;99874.78;6073596;23;20025;-80
2022/11/08 09:33:05;;;;;;;23.02;10.05;;;;;;;5.45;71.97;99731.06;6026742;23;20047;-81
2022/11/08 09:36:07;;;;;;;18.10;8.90;;;;;;;5.76;71.80;99772.69;6044745;23;20038;-82
2022/11/08 09:51:15;;;;;;;19.75;8.95;;;;;;;5.36;71.68;99700.84;6002774;23;20428;-81
2022/11/08 09:54:07;;;;;;;;;;;;;;;;;;;;;
2022/11/08 09:58:44;;;;;;;20.58;9.68;;;;;;;6.53;71.94;99878.53;6073772;23;20045;-80
2022/11/08 10:01:54;;;;;;;19.90;8.38;;;;;;;5.75;71.34;99745.13;6056941;23;20034;-80
2022/11/08 10:05:09;;;;;;;;;;;;;;;;;;;;;
2022/11/08 10:08:34;;;;;;;16.58;8.13;;;;;;;6.37;72.04;99880.09;6016012;23;20518;-80
2022/11/08 10:12:02;;;;;;;15.75;7.80;;;;;;;6.41;72.17;99871.53;6085810;23;20060;-83
2022/11/08 10:15:15;;;;;;;18.80;8.02;;;;;;;6.39;72.18;99873.22;6070249;23;20068;-81
2022/11/08 10:18:44;;;;;;;15.27;8.20;;;;;;;6.39;72.00;99878.41;6072894;23;20405;-80
2022/11/08 10:25:59;;;;;;;15.88;8.23;;;;;;;5.70;71.50;99764.03;5920106;24;20481;-81
2022/11/08 10:29:40;;;;;;;14.25;8.27;;;;;;;5.62;71.99;99746.72;6053042;23;20018;-82
2022/11/08 10:32:23;;;;;;;15.13;7.90;;;;;;;6.26;72.27;99873.13;6073056;23;20084;-82
2022/11/08 10:35:20;;;;;;;14.57;8.23;;;;;;;5.98;72.15;99825.41;6048262;23;20014;-80
2022/11/08 10:38:34;;;;;;;;;;;;;;;;;;;;;
2022/11/08 10:51:54;;;;;;;;;;;;;;;;;;;;;
2022/11/08 10:56:19;;;;;;;15.35;7.45;;;;;;;5.17;72.68;99679.16;6011325;23;20030;-81
2022/11/08 10:59:29;;;;;;;14.15;7.05;;;;;;;5.32;72.92;99694.81;5874768;24;20062;-83
2022/11/08 11:02:40;;;;;;;14.30;7.63;;;;;;;6.38;72.72;99861.16;5885181;23;20029;-83
2022/11/08 11:05:59;;;;;;;12.40;6.10;;;;;;;5.24;72.42;99678.38;5969186;23;20470;-84
2022/11/08 11:08:32;;;;;;;15.68;7.32;;;;;;;6.41;72.67;99866.38;6065122;23;20022;-83
2022/11/08 11:11:27;;;;;;;13.18;6.68;;;;;;;6.43;72.87;99862.06;6044378;23;20089;-81
2022/11/08 11:14:36;;;;;;;14.50;6.70;;;;;;;5.95;72.40;99797.84;6027606;23;20022;-81
2022/11/08 11:17:19;;;;;;;13.73;7.13;;;;;;;5.00;72.68;99630.81;6044517;23;20050;-80
2022/11/08 11:20:21;;;;;;;15.18;6.68;;;;;;;6.43;73.15;99854.31;6045363;23;20096;-83
2022/11/08 11:22:59;;;;;;;16.08;7.88;;;;;;;6.38;73.06;99848.22;6067071;23;20023;-82
2022/11/08 11:25:48;;;;;;;12.13;6.93;;;;;;;6.10;72.94;99794.59;6023519;23;20030;-83
2022/11/08 11:28:34;;;;;;;14.75;6.88;;;;;;;6.01;72.77;99764.38;6043456;23;20042;-83
2022/11/08 11:31:17;;;;;;;13.68;6.85;;;;;;;5.20;72.83;99630.16;6047537;23;20105;-79
2022/11/08 11:33:56;;;;;;;14.52;6.85;;;;;;;6.59;73.29;99860.50;6045284;23;20042;-81
2022/11/08 11:36:28;;;;;;;12.35;6.45;;;;;;;6.18;72.60;99772.25;6069208;23;20097;-82
2022/11/08 11:39:19;;;;;;;;;;;;;;;6.58;73.01;99838.94;6020063;23;20026;-82
2022/11/08 11:41:59;;;;;;;13.15;6.85;;;;;;;5.41;72.41;99660.47;6011881;23;19921;-85
2022/11/08 11:44:45;;;;;;;12.35;6.90;;;;;;;6.59;72.69;99830.31;6015602;23;20019;-85
2022/11/08 11:47:28;;;;;;;12.48;6.40;;;;;;;5.56;73.24;99672.69;5992457;23;20075;-83
2022/11/08 11:50:31;;;;;;;12.82;6.80;;;;;;;5.89;72.97;99715.13;6019177;23;20023;-84
2022/11/08 11:53:15;;;;;;;13.13;6.78;;;;;;;5.18;72.88;99603.50;5961620;23;20030;-81
2022/11/08 12:00:39;;;;;;;12.13;6.15;;;;;;;6.08;72.94;99767.00;6000547;23;20045;-84
2022/11/08 12:03:59;;;;;;;16.30;6.90;;;;;;;5.86;73.34;99734.06;6001739;23;19999;-84
2022/11/08 12:06:50;;;;;;;11.82;6.97;;;;;;;6.52;73.32;99843.19;6046346;23;20054;-83
2022/11/08 12:09:52;;;;;;;11.88;6.00;;;;;;;6.44;73.26;99840.53;5994283;23;20504;-82
2022/11/08 12:12:30;;;;;;;14.65;7.18;;;;;;;6.39;73.02;99842.22;5972233;23;20027;-83
2022/11/08 12:15:06;;;;;;;15.57;6.60;;;;;;;5.25;73.09;99672.34;6019947;23;20046;-83
2022/11/08 12:17:54;;;;;;;11.77;6.40;;;;;;;6.32;73.55;99842.16;6027274;23;20019;-81
2022/11/08 12:20:28;;;;;;;10.98;6.20;;;;;;;6.28;73.41;99848.16;6028958;23;20019;-80
2022/11/08 12:23:19;;;;;;;16.52;6.03;;;;;;;6.20;73.33;99844.63;6009550;23;20019;-81
2022/11/08 12:26:05;;;;;;;9.02;5.47;;;;;;;6.17;73.49;99852.34;6006496;23;20039;-84
2022/11/08 12:28:51;;;;;;;11.70;6.28;;;;;;;5.16;73.45;99687.75;6019993;23;20110;-82
2022/11/08 12:32:03;;;;;;;13.38;5.57;;;;;;;5.06;73.98;99660.97;6019743;23;20051;-83
2022/11/08 12:35:26;;;;;;;10.57;5.80;;;;;;;6.18;74.29;99849.78;5914267;24;20017;-82
2022/11/08 12:38:18;;;;;;;9.85;5.20;;;;;;;5.85;73.80;99811.50;5956125;24;20099;-81
2022/11/08 12:41:16;;;;;;;9.02;4.72;;;;;;;4.83;73.71;99648.69;5955614;24;20025;-85
2022/11/08 12:43:52;;;;;;;7.22;4.60;;;;;;;6.06;74.31;99847.06;5960428;23;20484;-82
2022/11/08 12:46:20;;;;;;;8.18;4.78;;;;;;;5.71;73.99;99798.47;5966037;23;20023;-82
2022/11/08 12:49:11;;;;;;;7.25;4.15;;;;;;;6.01;74.14;99851.31;5965969;23;20099;-82
2022/11/08 12:52:18;;;;;;;8.48;4.40;;;;;;;6.01;74.06;99851.31;5989071;23;20485;-82
2022/11/08 12:54:56;;;;;;;7.68;4.60;;;;;;;5.97;74.15;99855.56;5843470;24;20036;-81
2022/11/08 12:57:27;;;;;;;7.85;4.50;;;;;;;5.54;74.14;99787.94;5884520;24;20032;-83
2022/11/08 13:00:02;;;;;;;8.00;4.40;;;;;;;5.96;74.45;99852.97;5941180;23;20019;-81
2022/11/08 13:02:36;;;;;;;11.02;4.97;;;;;;;5.20;74.38;99743.66;5990362;23;20019;-82
2022/11/08 13:05:06;;;;;;;6.68;4.28;;;;;;;5.88;74.28;99851.16;5994201;23;20023;-83
2022/11/08 13:07:56;;;;;;;9.65;4.80;;;;;;;5.77;74.50;99839.84;6012049;23;20085;-83
2022/11/08 13:10:34;;;;;;;7.57;4.20;;;;;;;5.85;74.85;99847.66;5987416;23;20019;-83
2022/11/08 13:13:36;;;;;;;7.40;3.78;;;;;;;5.55;74.57;99805.19;5964169;23;20024;-81
2022/11/08 13:16:20;;;;;;;8.95;4.32;;;;;;;5.24;75.00;99753.19;5930495;23;20020;-81
2022/11/08 13:18:54;;;;;;;7.07;4.10;;;;;;;4.87;75.00;99701.16;5962700;23;20450;-82
2022/11/08 13:21:36;;;;;;;7.03;3.80;;;;;;;5.06;74.83;99717.72;5964967;23;20043;-85
2022/11/08 13:24:09;;;;;;;6.20;3.58;;;;;;;5.84;74.28;99843.38;5964056;23;20057;-83
2022/11/08 13:26:40;;;;;;;6.85;4.35;;;;;;;5.55;74.53;99794.84;5941104;23;20058;-82
2022/11/08 13:29:15;;;;;;;5.23;3.60;;;;;;;5.83;74.73;99839.91;5966120;23;20055;-85
2022/11/08 13:31:57;;;;;;;8.15;4.03;;;;;;;5.35;75.02;99761.94;6016195;23;20256;-83
2022/11/08 13:34:58;;;;;;;5.55;3.90;;;;;;;5.87;75.06;99833.94;5995549;23;20370;-82
2022/11/08 13:37:51;;;;;;;7.72;3.38;;;;;;;5.91;74.83;99826.22;5972003;23;20030;-82
2022/11/08 13:40:32;;;;;;;7.13;3.60;;;;;;;5.53;74.52;99781.06;6023641;23;20020;-83
2022/11/08 13:43:21;;;;;;;5.00;3.00;;;;;;;5.12;74.53;99692.00;5990430;23;20027;-83
2022/11/08 13:45:48;;;;;;;5.38;3.50;;;;;;;5.51;75.09;99754.34;6019119;23;20028;-82
2022/11/08 13:48:24;;;;;;;5.40;3.38;;;;;;;5.97;74.83;99832.31;6046339;23;20090;-80
2022/11/08 13:51:44;;;;;;;4.70;3.45;;;;;;;5.98;75.11;99828.00;5977320;23;20023;-83
2022/11/08 13:54:25;;;;;;;7.15;3.33;;;;;;;5.96;75.33;99825.41;6001760;23;20019;-83
2022/11/08 13:57:26;;;;;;;6.88;3.20;;;;;;;5.97;74.70;99832.31;5995971;23;20019;-83
2022/11/08 14:00:00;;;;;;;6.10;3.35;;;;;;;4.55;75.31;99588.16;5973510;23;20063;-80
2022/11/08 14:02:31;;;;;;;5.55;3.67;;;;;;;5.21;74.45;99692.09;5996390;23;20053;-80
2022/11/08 14:05:19;;;;;;;5.55;3.22;;;;;;;6.01;75.16;99815.16;6047937;23;20063;-81
2022/11/08 14:07:58;;;;;;;4.93;3.05;;;;;;;5.79;74.96;99777.91;5998895;23;20023;-82